Terminal Aerodrome Forecast
Issued by NWS

Home | Current Version | Previous Version | Text Only | Print | Product List | Glossary On
Versions: 1 2 3 4 5 6 7 8 9 10 11 12 13 14 15
738
FTUS43 KAPX 221120
TAFPLN
TAF
KPLN 221120Z 2212/2312 17007KT P6SM SCT070 WS018/23040KT
     FM221400 17010KT P6SM BKN070
     FM221600 19012G21KT P6SM BKN070
     FM221900 20010KT P6SM -SHRA OVC050
     FM222100 23010KT 5SM -SHRA OVC035
     FM222300 28008KT 3SM -SHRA OVC025
     FM230100 30006KT 2SM -SHRA OVC010
     FM230600 VRB03KT 2SM -SHRA BR OVC010
     FM230900 00000KT 3SM BR BKN015=

USA.gov is the U.S. government's official web portal to all federal, state and local government web resources and services.